Meteo Giornale » Osservazioni meteo Italia » Genova-Sestri

ore: 14:20 - Osservazioni Meteo Genova-Sestri
Lat. 44° 25' N Lon. 8° 51' E Alt. 2 metri s.l.m.

poco_nuvoloso Europe/Rome

18 °C

Poco Nuvoloso

Temp. 24 Ore

12 °C

18 °C

Sud/Sud-Est

9.3 Km/h

Dew point 7 °C

Umidità 48 %

Visibilità  10 Km

Il sole sorge alle ore 06:14

Il sole tramonta alle ore 20:29

Data e Ora Cielo e Fenomeni T °C DP °C Um. % Pres. hPa Vis. km Vento km/h
Oggi h: 14:20 poco_nuvoloso Poco Nuvoloso 18 7 48 1014 10 S/SE 9.3
Oggi h: 13:50 poco_nuvoloso Poco Nuvoloso 17 8 55 1014 10 N 5.5
Oggi h: 13:20 poco_nuvoloso Poco Nuvoloso 17 8 55 1014 10 S 7.4
Oggi h: 12:50 poco_nuvoloso Poco Nuvoloso 17 9 59 1015 10 S 9.3
Oggi h: 12:20 sereno Sereno 17 7 51 1015 10 S/SO 7.4
Oggi h: 11:50 sereno Sereno 17 9 59 1015 10 S/SO 9.3
Oggi h: 11:20 sereno Sereno 17 7 51 1015 10 S/SO 9.3
Oggi h: 10:50 sereno Sereno 17 5 45 1015 10 S/SO 7.4
Oggi h: 10:20 sereno Sereno 17 4 41 1015 10 SO 7.4
Oggi h: 09:50 sereno Sereno 17 3 39 1015 10 E/NE 9.3
Oggi h: 09:20 sereno Sereno 16 3 41 1016 10 N/NE 9.3
Oggi h: 08:50 sereno Sereno 15 3 44 1016 10 N/NE 9.3
Oggi h: 08:20 sereno Sereno 14 3 47 1016 10 NE 9.3
Oggi h: 07:50 sereno Sereno 13 3 50 1016 10 N/NE 11.1
Oggi h: 07:20 sereno Sereno 12 3 54 1015 10 E/NE 7.4
Oggi h: 06:50 sereno Sereno 12 3 54 1015 10 N/NE 7.4
Oggi h: 06:20 sereno Sereno 12 3 54 1015 10 N/NE 7.4
Oggi h: 05:50 sereno Sereno 12 3 54 1015 10 N 5.5
Oggi h: 05:20 sereno Sereno 12 3 54 1015 10 N/NE 7.4
Oggi h: 04:50 sereno Sereno 12 3 54 1015 10 N 7.4
Oggi h: 04:20 sereno Sereno 12 3 54 1015 10 N/NE 9.3
Oggi h: 03:50 sereno Sereno 12 3 54 1015 10 N/NE 9.3
Oggi h: 03:20 sereno Sereno 12 4 57 1015 10 N/NE 9.3
Oggi h: 02:50 sereno Sereno 12 4 57 1015 10 N/NE 9.3
Oggi h: 02:20 sereno Sereno 12 4 57 1015 10 N/NE 9.3
Oggi h: 01:50 sereno Sereno 12 4 57 1016 10 N/NE 9.3
Oggi h: 01:20 sereno Sereno 12 4 57 1016 10 N/NE 9.3
Oggi h: 00:50 sereno Sereno 12 5 62 1016 10 N/NE 7.4
Oggi h: 00:20 sereno Sereno 12 5 62 1016 10 N/NE 9.3
Ieri h: 23:50 sereno Sereno 13 5 58 1016 10 N/NE 7.4
Ieri h: 23:20 sereno Sereno 13 6 62 1016 10 N/NE 7.4
Ieri h: 22:50 sereno Sereno 13 6 62 1015 10 N/NE 9.3
Ieri h: 22:20 sereno Sereno 14 6 58 1015 10 N/NE 7.4
Ieri h: 21:50 sereno Sereno 14 5 54 1015 10 N 5.5
Ieri h: 21:20 sereno Sereno 14 4 50 1015 10 NE 9.3
Ieri h: 20:50 sereno Sereno 15 7 58 1015 10 N 3.7
Ieri h: 20:20 sereno Sereno 15 7 58 1014 10 O/SO 9.3
Ieri h: 19:50 sereno Sereno 16 7 55 1014 10 O/SO 13
Ieri h: 19:20 sereno Sereno 16 6 51 1014 10 O 11.1
Ieri h: 18:50 sereno Sereno 17 6 48 1014 10 O/SO 11.1
Ieri h: 17:50 sereno Sereno 17 7 51 1014 10 S/SO 11.1
Ieri h: 17:20 sereno Sereno 18 7 48 1014 10 SO 9.3
Ieri h: 16:50 sereno Sereno 18 6 45 1015 10 S/SO 14.8
Ieri h: 16:20 sereno Sereno 18 4 39 1015 10 S/SO 14.8
Ieri h: 15:50 sereno Sereno 18 4 39 1015 10 S/SO 14.8
Ieri h: 15:20 sereno Sereno 18 4 39 1015 10 S/SO 13
Ieri h: 14:50 sereno Sereno 18 3 36 1015 10 S 9.3